sensor_id;sensor_type;location;lat;lon;timestamp;temperature;humidity
21425;DHT22;10873;51.132;16.848;2023-03-26T00:01:32;25.10;52.80
21425;DHT22;10873;51.132;16.848;2023-03-26T00:04:02;25.10;52.90
21425;DHT22;10873;51.132;16.848;2023-03-26T00:06:30;25.10;52.90
21425;DHT22;10873;51.132;16.848;2023-03-26T00:08:58;25.10;52.90
21425;DHT22;10873;51.132;16.848;2023-03-26T00:11:26;25.10;52.90
21425;DHT22;10873;51.132;16.848;2023-03-26T00:13:53;25.10;52.90
21425;DHT22;10873;51.132;16.848;2023-03-26T00:16:22;25.10;52.90
21425;DHT22;10873;51.132;16.848;2023-03-26T00:18:50;25.10;52.80
21425;DHT22;10873;51.132;16.848;2023-03-26T00:21:17;25.10;52.80
21425;DHT22;10873;51.132;16.848;2023-03-26T00:23:51;25.10;52.70
21425;DHT22;10873;51.132;16.848;2023-03-26T00:26:18;25.10;52.70
21425;DHT22;10873;51.132;16.848;2023-03-26T00:28:44;25.10;52.70
21425;DHT22;10873;51.132;16.848;2023-03-26T00:31:12;25.10;52.60
21425;DHT22;10873;51.132;16.848;2023-03-26T00:33:40;25.10;52.60
21425;DHT22;10873;51.132;16.848;2023-03-26T00:36:09;25.10;52.50
21425;DHT22;10873;51.132;16.848;2023-03-26T00:38:37;25.10;52.50
21425;DHT22;10873;51.132;16.848;2023-03-26T00:41:05;25.10;52.50
21425;DHT22;10873;51.132;16.848;2023-03-26T00:43:33;25.10;52.50
21425;DHT22;10873;51.132;16.848;2023-03-26T00:46:00;25.10;52.50
21425;DHT22;10873;51.132;16.848;2023-03-26T00:48:28;25.10;52.40
21425;DHT22;10873;51.132;16.848;2023-03-26T00:50:59;25.10;52.50
21425;DHT22;10873;51.132;16.848;2023-03-26T00:53:27;25.10;52.40
21425;DHT22;10873;51.132;16.848;2023-03-26T00:55:53;25.10;52.50
21425;DHT22;10873;51.132;16.848;2023-03-26T00:58:25;25.10;52.40
21425;DHT22;10873;51.132;16.848;2023-03-26T01:00:53;25.20;52.40
21425;DHT22;10873;51.132;16.848;2023-03-26T01:03:23;25.20;52.40
21425;DHT22;10873;51.132;16.848;2023-03-26T01:05:50;25.20;52.30
21425;DHT22;10873;51.132;16.848;2023-03-26T01:08:25;25.20;52.30
21425;DHT22;10873;51.132;16.848;2023-03-26T01:10:54;25.20;52.20
21425;DHT22;10873;51.132;16.848;2023-03-26T01:13:30;25.20;52.20
21425;DHT22;10873;51.132;16.848;2023-03-26T01:15:57;25.20;52.20
21425;DHT22;10873;51.132;16.848;2023-03-26T01:18:29;25.20;52.20
21425;DHT22;10873;51.132;16.848;2023-03-26T01:21:00;25.20;52.20
21425;DHT22;10873;51.132;16.848;2023-03-26T01:23:43;25.20;52.20
21425;DHT22;10873;51.132;16.848;2023-03-26T01:26:25;25.20;52.20
21425;DHT22;10873;51.132;16.848;2023-03-26T01:28:55;25.20;52.10
21425;DHT22;10873;51.132;16.848;2023-03-26T01:31:27;25.20;52.70
21425;DHT22;10873;51.132;16.848;2023-03-26T01:33:58;25.20;52.10
21425;DHT22;10873;51.132;16.848;2023-03-26T01:36:32;25.20;52.00
21425;DHT22;10873;51.132;16.848;2023-03-26T01:39:05;25.20;52.00
21425;DHT22;10873;51.132;16.848;2023-03-26T01:41:40;25.20;52.00
21425;DHT22;10873;51.132;16.848;2023-03-26T01:44:13;25.20;51.90
21425;DHT22;10873;51.132;16.848;2023-03-26T01:46:41;25.20;51.90
21425;DHT22;10873;51.132;16.848;2023-03-26T01:49:08;25.20;51.90
21425;DHT22;10873;51.132;16.848;2023-03-26T01:51:39;25.20;51.90
21425;DHT22;10873;51.132;16.848;2023-03-26T01:54:09;25.20;51.90
21425;DHT22;10873;51.132;16.848;2023-03-26T01:56:46;25.20;51.80
21425;DHT22;10873;51.132;16.848;2023-03-26T01:59:29;25.20;51.80
21425;DHT22;10873;51.132;16.848;2023-03-26T02:02:05;25.20;51.80
21425;DHT22;10873;51.132;16.848;2023-03-26T02:04:40;25.20;51.80
21425;DHT22;10873;51.132;16.848;2023-03-26T02:07:11;25.20;51.80
21425;DHT22;10873;51.132;16.848;2023-03-26T02:09:42;25.20;51.80
21425;DHT22;10873;51.132;16.848;2023-03-26T02:12:12;25.20;51.70
21425;DHT22;10873;51.132;16.848;2023-03-26T02:14:40;25.20;51.80
21425;DHT22;10873;51.132;16.848;2023-03-26T02:17:07;25.20;51.80
21425;DHT22;10873;51.132;16.848;2023-03-26T02:19:35;25.20;51.70
21425;DHT22;10873;51.132;16.848;2023-03-26T02:22:01;25.20;52.40
21425;DHT22;10873;51.132;16.848;2023-03-26T02:24:27;25.20;51.70
21425;DHT22;10873;51.132;16.848;2023-03-26T02:26:53;25.20;51.80
21425;DHT22;10873;51.132;16.848;2023-03-26T02:29:20;25.10;51.70
21425;DHT22;10873;51.132;16.848;2023-03-26T02:31:47;25.10;51.70
21425;DHT22;10873;51.132;16.848;2023-03-26T02:34:13;25.10;51.80
21425;DHT22;10873;51.132;16.848;2023-03-26T02:36:39;25.10;51.80
21425;DHT22;10873;51.132;16.848;2023-03-26T02:39:08;25.10;51.80
21425;DHT22;10873;51.132;16.848;2023-03-26T02:41:35;25.10;51.80
21425;DHT22;10873;51.132;16.848;2023-03-26T02:44:02;25.10;51.80
21425;DHT22;10873;51.132;16.848;2023-03-26T02:46:30;25.10;51.80
21425;DHT22;10873;51.132;16.848;2023-03-26T02:48:56;25.10;51.90
21425;DHT22;10873;51.132;16.848;2023-03-26T02:51:22;25.10;51.90
21425;DHT22;10873;51.132;16.848;2023-03-26T02:53:48;25.00;51.80
21425;DHT22;10873;51.132;16.848;2023-03-26T02:56:14;25.00;51.90
21425;DHT22;10873;51.132;16.848;2023-03-26T02:58:40;25.00;51.90
21425;DHT22;10873;51.132;16.848;2023-03-26T03:01:06;25.00;51.90
21425;DHT22;10873;51.132;16.848;2023-03-26T03:03:34;25.00;51.90
21425;DHT22;10873;51.132;16.848;2023-03-26T03:06:01;25.00;51.90
21425;DHT22;10873;51.132;16.848;2023-03-26T03:08:27;25.00;51.90
21425;DHT22;10873;51.132;16.848;2023-03-26T03:10:58;25.00;51.90
21425;DHT22;10873;51.132;16.848;2023-03-26T03:13:24;25.00;51.90
21425;DHT22;10873;51.132;16.848;2023-03-26T03:15:50;25.00;51.90
21425;DHT22;10873;51.132;16.848;2023-03-26T03:18:17;25.00;52.00
21425;DHT22;10873;51.132;16.848;2023-03-26T03:20:44;25.00;51.90
21425;DHT22;10873;51.132;16.848;2023-03-26T03:23:10;25.00;51.90
21425;DHT22;10873;51.132;16.848;2023-03-26T03:25:36;25.00;51.90
21425;DHT22;10873;51.132;16.848;2023-03-26T03:28:03;25.00;51.90
21425;DHT22;10873;51.132;16.848;2023-03-26T03:30:29;25.00;51.90
21425;DHT22;10873;51.132;16.848;2023-03-26T03:32:55;25.00;51.80
21425;DHT22;10873;51.132;16.848;2023-03-26T03:35:23;25.00;51.80
21425;DHT22;10873;51.132;16.848;2023-03-26T03:37:50;25.00;51.80
21425;DHT22;10873;51.132;16.848;2023-03-26T03:40:16;25.00;51.80
21425;DHT22;10873;51.132;16.848;2023-03-26T03:42:42;25.00;51.80
21425;DHT22;10873;51.132;16.848;2023-03-26T03:45:09;25.00;51.70
21425;DHT22;10873;51.132;16.848;2023-03-26T03:47:35;25.00;51.70
21425;DHT22;10873;51.132;16.848;2023-03-26T03:50:01;25.00;51.70
21425;DHT22;10873;51.132;16.848;2023-03-26T03:52:28;25.00;51.70
21425;DHT22;10873;51.132;16.848;2023-03-26T03:54:55;25.00;51.70
21425;DHT22;10873;51.132;16.848;2023-03-26T03:57:28;25.00;51.80
21425;DHT22;10873;51.132;16.848;2023-03-26T03:59:55;25.00;51.60
21425;DHT22;10873;51.132;16.848;2023-03-26T04:02:23;25.00;51.60
21425;DHT22;10873;51.132;16.848;2023-03-26T04:04:55;25.00;51.60
21425;DHT22;10873;51.132;16.848;2023-03-26T04:07:22;25.00;51.60
21425;DHT22;10873;51.132;16.848;2023-03-26T04:09:48;25.00;51.60
21425;DHT22;10873;51.132;16.848;2023-03-26T04:12:15;25.00;51.60
21425;DHT22;10873;51.132;16.848;2023-03-26T04:14:41;25.00;51.60
21425;DHT22;10873;51.132;16.848;2023-03-26T04:17:08;25.00;51.60
21425;DHT22;10873;51.132;16.848;2023-03-26T04:19:33;25.00;51.60
21425;DHT22;10873;51.132;16.848;2023-03-26T04:22:00;25.00;51.70
21425;DHT22;10873;51.132;16.848;2023-03-26T04:24:27;25.00;51.60
21425;DHT22;10873;51.132;16.848;2023-03-26T04:26:54;25.00;51.60
21425;DHT22;10873;51.132;16.848;2023-03-26T04:29:24;25.00;51.50
21425;DHT22;10873;51.132;16.848;2023-03-26T04:31:54;25.00;51.50
21425;DHT22;10873;51.132;16.848;2023-03-26T04:34:24;25.00;51.50
21425;DHT22;10873;51.132;16.848;2023-03-26T04:36:51;25.00;51.60
21425;DHT22;10873;51.132;16.848;2023-03-26T04:39:19;25.00;51.60
21425;DHT22;10873;51.132;16.848;2023-03-26T04:41:47;25.00;51.60
21425;DHT22;10873;51.132;16.848;2023-03-26T04:44:13;25.00;51.70
21425;DHT22;10873;51.132;16.848;2023-03-26T04:46:43;25.00;51.60
21425;DHT22;10873;51.132;16.848;2023-03-26T04:49:09;25.00;51.70
21425;DHT22;10873;51.132;16.848;2023-03-26T04:51:37;25.00;51.70
21425;DHT22;10873;51.132;16.848;2023-03-26T04:54:04;25.00;51.60
21425;DHT22;10873;51.132;16.848;2023-03-26T04:56:39;25.00;51.60
21425;DHT22;10873;51.132;16.848;2023-03-26T04:59:10;25.00;51.60
21425;DHT22;10873;51.132;16.848;2023-03-26T05:01:38;25.00;51.60
21425;DHT22;10873;51.132;16.848;2023-03-26T05:04:06;25.00;51.60
21425;DHT22;10873;51.132;16.848;2023-03-26T05:06:32;25.00;51.60
21425;DHT22;10873;51.132;16.848;2023-03-26T05:08:59;25.00;51.60
21425;DHT22;10873;51.132;16.848;2023-03-26T05:11:25;25.00;51.60
21425;DHT22;10873;51.132;16.848;2023-03-26T05:13:51;25.00;51.60
21425;DHT22;10873;51.132;16.848;2023-03-26T05:16:17;25.00;51.60
21425;DHT22;10873;51.132;16.848;2023-03-26T05:18:43;25.00;51.60
21425;DHT22;10873;51.132;16.848;2023-03-26T05:21:10;25.00;51.50
21425;DHT22;10873;51.132;16.848;2023-03-26T05:23:36;25.00;51.50
21425;DHT22;10873;51.132;16.848;2023-03-26T05:26:03;25.00;51.50
21425;DHT22;10873;51.132;16.848;2023-03-26T05:28:29;25.00;51.50
21425;DHT22;10873;51.132;16.848;2023-03-26T05:30:55;25.00;51.50
21425;DHT22;10873;51.132;16.848;2023-03-26T05:33:21;25.00;51.50
21425;DHT22;10873;51.132;16.848;2023-03-26T05:35:58;25.00;51.50
21425;DHT22;10873;51.132;16.848;2023-03-26T05:38:26;25.00;51.50
21425;DHT22;10873;51.132;16.848;2023-03-26T05:40:57;25.00;51.50
21425;DHT22;10873;51.132;16.848;2023-03-26T05:43:23;25.00;51.50
21425;DHT22;10873;51.132;16.848;2023-03-26T05:45:49;25.00;51.50
21425;DHT22;10873;51.132;16.848;2023-03-26T05:48:15;25.00;51.50
21425;DHT22;10873;51.132;16.848;2023-03-26T05:50:41;25.00;51.40
21425;DHT22;10873;51.132;16.848;2023-03-26T05:53:07;25.00;51.40
21425;DHT22;10873;51.132;16.848;2023-03-26T05:55:35;25.00;51.40
21425;DHT22;10873;51.132;16.848;2023-03-26T05:58:00;25.00;51.40
21425;DHT22;10873;51.132;16.848;2023-03-26T06:00:27;25.00;51.40
21425;DHT22;10873;51.132;16.848;2023-03-26T06:02:53;25.00;51.40
21425;DHT22;10873;51.132;16.848;2023-03-26T06:05:20;25.00;51.40
21425;DHT22;10873;51.132;16.848;2023-03-26T06:07:46;25.00;51.40
21425;DHT22;10873;51.132;16.848;2023-03-26T06:10:12;25.00;51.40
21425;DHT22;10873;51.132;16.848;2023-03-26T06:12:39;25.00;51.40
21425;DHT22;10873;51.132;16.848;2023-03-26T06:15:07;25.00;51.40
21425;DHT22;10873;51.132;16.848;2023-03-26T06:17:33;25.00;51.30
21425;DHT22;10873;51.132;16.848;2023-03-26T06:19:59;25.00;51.30
21425;DHT22;10873;51.132;16.848;2023-03-26T06:22:25;25.00;51.30
21425;DHT22;10873;51.132;16.848;2023-03-26T06:24:51;25.00;51.30
21425;DHT22;10873;51.132;16.848;2023-03-26T06:27:17;25.00;51.30
21425;DHT22;10873;51.132;16.848;2023-03-26T06:29:45;25.00;51.30
21425;DHT22;10873;51.132;16.848;2023-03-26T06:32:10;25.00;51.30
21425;DHT22;10873;51.132;16.848;2023-03-26T06:34:37;25.00;51.40
21425;DHT22;10873;51.132;16.848;2023-03-26T06:37:03;25.00;51.40
21425;DHT22;10873;51.132;16.848;2023-03-26T06:39:29;25.00;51.40
21425;DHT22;10873;51.132;16.848;2023-03-26T06:41:55;25.00;51.40
21425;DHT22;10873;51.132;16.848;2023-03-26T06:44:21;25.00;51.40
21425;DHT22;10873;51.132;16.848;2023-03-26T06:46:49;25.10;51.50
21425;DHT22;10873;51.132;16.848;2023-03-26T06:49:15;25.00;51.40
21425;DHT22;10873;51.132;16.848;2023-03-26T06:51:41;25.00;51.10
21425;DHT22;10873;51.132;16.848;2023-03-26T06:54:08;25.00;50.90
21425;DHT22;10873;51.132;16.848;2023-03-26T06:56:34;25.00;50.90
21425;DHT22;10873;51.132;16.848;2023-03-26T06:59:00;25.00;50.80
21425;DHT22;10873;51.132;16.848;2023-03-26T07:01:26;25.00;50.70
21425;DHT22;10873;51.132;16.848;2023-03-26T07:03:54;24.90;50.60
21425;DHT22;10873;51.132;16.848;2023-03-26T07:06:20;24.90;50.30
21425;DHT22;10873;51.132;16.848;2023-03-26T07:08:46;24.80;49.20
21425;DHT22;10873;51.132;16.848;2023-03-26T07:11:12;24.80;48.70
21425;DHT22;10873;51.132;16.848;2023-03-26T07:13:38;24.80;48.40
21425;DHT22;10873;51.132;16.848;2023-03-26T07:16:05;24.70;48.10
21425;DHT22;10873;51.132;16.848;2023-03-26T07:18:31;24.70;48.00
21425;DHT22;10873;51.132;16.848;2023-03-26T07:20:59;24.60;48.00
21425;DHT22;10873;51.132;16.848;2023-03-26T07:23:26;24.60;48.10
21425;DHT22;10873;51.132;16.848;2023-03-26T07:25:53;24.50;48.30
21425;DHT22;10873;51.132;16.848;2023-03-26T07:28:23;24.50;48.50
21425;DHT22;10873;51.132;16.848;2023-03-26T07:30:59;24.40;48.60
21425;DHT22;10873;51.132;16.848;2023-03-26T07:33:35;24.30;48.70
21425;DHT22;10873;51.132;16.848;2023-03-26T07:36:12;24.30;48.80
21425;DHT22;10873;51.132;16.848;2023-03-26T07:38:51;24.20;49.00
21425;DHT22;10873;51.132;16.848;2023-03-26T07:41:26;24.20;48.90
21425;DHT22;10873;51.132;16.848;2023-03-26T07:44:08;24.20;48.90
21425;DHT22;10873;51.132;16.848;2023-03-26T07:46:36;24.10;48.80
21425;DHT22;10873;51.132;16.848;2023-03-26T07:49:04;24.10;48.90
21425;DHT22;10873;51.132;16.848;2023-03-26T07:51:32;24.10;48.90
21425;DHT22;10873;51.132;16.848;2023-03-26T07:53:59;24.00;48.80
21425;DHT22;10873;51.132;16.848;2023-03-26T07:56:29;24.00;48.80
21425;DHT22;10873;51.132;16.848;2023-03-26T07:59:06;24.00;48.80
21425;DHT22;10873;51.132;16.848;2023-03-26T08:01:45;24.00;48.70
21425;DHT22;10873;51.132;16.848;2023-03-26T08:04:37;23.90;48.60
21425;DHT22;10873;51.132;16.848;2023-03-26T08:07:14;23.90;48.70
21425;DHT22;10873;51.132;16.848;2023-03-26T08:09:51;23.90;48.90
21425;DHT22;10873;51.132;16.848;2023-03-26T08:12:28;23.80;49.00
21425;DHT22;10873;51.132;16.848;2023-03-26T08:15:03;23.80;49.00
21425;DHT22;10873;51.132;16.848;2023-03-26T08:17:37;23.80;49.00
21425;DHT22;10873;51.132;16.848;2023-03-26T08:20:11;23.70;49.40
21425;DHT22;10873;51.132;16.848;2023-03-26T08:22:45;23.70;49.50
21425;DHT22;10873;51.132;16.848;2023-03-26T08:25:26;23.60;49.50
21425;DHT22;10873;51.132;16.848;2023-03-26T08:28:06;23.60;49.60
21425;DHT22;10873;51.132;16.848;2023-03-26T08:30:36;23.60;50.50
21425;DHT22;10873;51.132;16.848;2023-03-26T08:33:11;23.60;49.90
21425;DHT22;10873;51.132;16.848;2023-03-26T08:35:38;23.50;49.90
21425;DHT22;10873;51.132;16.848;2023-03-26T08:38:08;23.50;50.00
21425;DHT22;10873;51.132;16.848;2023-03-26T08:46:55;23.50;50.00
21425;DHT22;10873;51.132;16.848;2023-03-26T08:52:53;23.50;50.00
21425;DHT22;10873;51.132;16.848;2023-03-26T08:55:39;23.40;49.90
21425;DHT22;10873;51.132;16.848;2023-03-26T09:01:18;23.40;50.00
21425;DHT22;10873;51.132;16.848;2023-03-26T09:04:04;23.40;50.00
21425;DHT22;10873;51.132;16.848;2023-03-26T09:06:59;23.40;49.90
21425;DHT22;10873;51.132;16.848;2023-03-26T09:10:06;23.30;49.60
21425;DHT22;10873;51.132;16.848;2023-03-26T09:16:16;23.20;49.10
21425;DHT22;10873;51.132;16.848;2023-03-26T09:19:16;23.10;49.60
21425;DHT22;10873;51.132;16.848;2023-03-26T09:22:16;22.90;49.90
21425;DHT22;10873;51.132;16.848;2023-03-26T09:25:17;22.80;50.40
21425;DHT22;10873;51.132;16.848;2023-03-26T09:28:12;22.70;50.80
21425;DHT22;10873;51.132;16.848;2023-03-26T09:31:04;22.70;51.20
21425;DHT22;10873;51.132;16.848;2023-03-26T09:33:54;22.60;51.50
21425;DHT22;10873;51.132;16.848;2023-03-26T09:36:31;22.60;51.80
21425;DHT22;10873;51.132;16.848;2023-03-26T09:39:06;22.50;51.80
21425;DHT22;10873;51.132;16.848;2023-03-26T09:41:40;22.50;51.80
21425;DHT22;10873;51.132;16.848;2023-03-26T09:44:31;22.50;51.70
21425;DHT22;10873;51.132;16.848;2023-03-26T09:47:29;22.50;51.60
21425;DHT22;10873;51.132;16.848;2023-03-26T09:53:13;22.40;51.90
21425;DHT22;10873;51.132;16.848;2023-03-26T09:55:49;22.40;52.20
21425;DHT22;10873;51.132;16.848;2023-03-26T09:58:44;22.40;52.50
21425;DHT22;10873;51.132;16.848;2023-03-26T10:01:19;22.40;52.70
21425;DHT22;10873;51.132;16.848;2023-03-26T10:04:00;22.30;52.70
21425;DHT22;10873;51.132;16.848;2023-03-26T10:06:43;22.30;52.80
21425;DHT22;10873;51.132;16.848;2023-03-26T10:09:28;22.30;52.80
21425;DHT22;10873;51.132;16.848;2023-03-26T10:12:15;22.30;52.80
21425;DHT22;10873;51.132;16.848;2023-03-26T10:14:50;22.40;52.60
21425;DHT22;10873;51.132;16.848;2023-03-26T10:17:35;22.40;52.30
21425;DHT22;10873;51.132;16.848;2023-03-26T10:20:23;22.40;51.90
21425;DHT22;10873;51.132;16.848;2023-03-26T10:23:00;22.50;51.50
21425;DHT22;10873;51.132;16.848;2023-03-26T10:25:39;22.50;51.40
21425;DHT22;10873;51.132;16.848;2023-03-26T10:28:19;22.50;51.20
21425;DHT22;10873;51.132;16.848;2023-03-26T10:31:06;22.50;51.10
21425;DHT22;10873;51.132;16.848;2023-03-26T10:33:53;22.50;50.80
21425;DHT22;10873;51.132;16.848;2023-03-26T10:36:27;22.50;50.60
21425;DHT22;10873;51.132;16.848;2023-03-26T10:39:12;22.60;50.30
21425;DHT22;10873;51.132;16.848;2023-03-26T10:41:50;22.60;50.20
21425;DHT22;10873;51.132;16.848;2023-03-26T10:44:34;22.60;50.40
21425;DHT22;10873;51.132;16.848;2023-03-26T10:47:40;22.60;50.40
21425;DHT22;10873;51.132;16.848;2023-03-26T10:50:22;22.50;50.80
21425;DHT22;10873;51.132;16.848;2023-03-26T10:52:56;22.50;51.10
21425;DHT22;10873;51.132;16.848;2023-03-26T10:55:28;22.50;51.40
21425;DHT22;10873;51.132;16.848;2023-03-26T10:57:58;22.50;51.60
21425;DHT22;10873;51.132;16.848;2023-03-26T11:00:27;22.50;51.90
21425;DHT22;10873;51.132;16.848;2023-03-26T11:03:09;22.50;51.70
21425;DHT22;10873;51.132;16.848;2023-03-26T11:05:46;22.50;51.70
21425;DHT22;10873;51.132;16.848;2023-03-26T11:08:20;22.40;51.70
21425;DHT22;10873;51.132;16.848;2023-03-26T11:10:50;22.40;51.70
21425;DHT22;10873;51.132;16.848;2023-03-26T11:13:27;22.50;51.60
21425;DHT22;10873;51.132;16.848;2023-03-26T11:16:02;22.40;51.40
21425;DHT22;10873;51.132;16.848;2023-03-26T11:18:34;22.40;51.20
21425;DHT22;10873;51.132;16.848;2023-03-26T11:21:07;22.40;51.20
21425;DHT22;10873;51.132;16.848;2023-03-26T11:23:38;22.40;51.20
21425;DHT22;10873;51.132;16.848;2023-03-26T11:26:12;22.40;51.20
21425;DHT22;10873;51.132;16.848;2023-03-26T11:31:50;22.30;51.20
21425;DHT22;10873;51.132;16.848;2023-03-26T11:34:20;22.40;51.30
21425;DHT22;10873;51.132;16.848;2023-03-26T11:36:51;22.40;51.20
21425;DHT22;10873;51.132;16.848;2023-03-26T11:39:22;22.40;51.10
21425;DHT22;10873;51.132;16.848;2023-03-26T11:41:53;22.40;51.00
21425;DHT22;10873;51.132;16.848;2023-03-26T11:44:23;22.40;50.90
21425;DHT22;10873;51.132;16.848;2023-03-26T11:46:54;22.40;50.90
21425;DHT22;10873;51.132;16.848;2023-03-26T11:49:24;22.40;50.70
21425;DHT22;10873;51.132;16.848;2023-03-26T11:51:51;22.40;50.70
21425;DHT22;10873;51.132;16.848;2023-03-26T11:54:20;22.40;50.60
21425;DHT22;10873;51.132;16.848;2023-03-26T11:56:49;22.40;50.70
21425;DHT22;10873;51.132;16.848;2023-03-26T11:59:18;22.40;50.60
21425;DHT22;10873;51.132;16.848;2023-03-26T12:01:49;22.40;50.70
21425;DHT22;10873;51.132;16.848;2023-03-26T12:04:16;22.30;50.60
21425;DHT22;10873;51.132;16.848;2023-03-26T12:06:51;22.30;50.60
21425;DHT22;10873;51.132;16.848;2023-03-26T12:09:19;22.20;50.60
21425;DHT22;10873;51.132;16.848;2023-03-26T12:11:47;22.30;50.40
21425;DHT22;10873;51.132;16.848;2023-03-26T12:14:16;22.20;50.20
21425;DHT22;10873;51.132;16.848;2023-03-26T12:16:56;22.20;50.00
21425;DHT22;10873;51.132;16.848;2023-03-26T12:19:22;22.20;49.70
21425;DHT22;10873;51.132;16.848;2023-03-26T12:21:51;22.10;49.70
21425;DHT22;10873;51.132;16.848;2023-03-26T12:24:30;22.10;49.70
21425;DHT22;10873;51.132;16.848;2023-03-26T12:26:59;22.10;49.50
21425;DHT22;10873;51.132;16.848;2023-03-26T12:29:28;22.10;49.30
21425;DHT22;10873;51.132;16.848;2023-03-26T12:32:05;22.10;50.30
21425;DHT22;10873;51.132;16.848;2023-03-26T12:34:33;22.10;51.50
21425;DHT22;10873;51.132;16.848;2023-03-26T12:37:00;22.10;51.00
21425;DHT22;10873;51.132;16.848;2023-03-26T12:39:34;22.20;51.40
21425;DHT22;10873;51.132;16.848;2023-03-26T12:42:08;22.30;51.70
21425;DHT22;10873;51.132;16.848;2023-03-26T12:44:50;22.30;52.10
21425;DHT22;10873;51.132;16.848;2023-03-26T12:47:19;22.40;52.30
21425;DHT22;10873;51.132;16.848;2023-03-26T12:49:48;22.40;52.40
21425;DHT22;10873;51.132;16.848;2023-03-26T12:52:40;22.50;52.60
21425;DHT22;10873;51.132;16.848;2023-03-26T12:55:31;22.60;52.70
21425;DHT22;10873;51.132;16.848;2023-03-26T12:58:09;22.60;52.80
21425;DHT22;10873;51.132;16.848;2023-03-26T13:00:48;22.70;52.90
21425;DHT22;10873;51.132;16.848;2023-03-26T13:03:26;22.70;53.00
21425;DHT22;10873;51.132;16.848;2023-03-26T13:06:17;22.80;53.10
21425;DHT22;10873;51.132;16.848;2023-03-26T13:12:03;22.90;53.50
21425;DHT22;10873;51.132;16.848;2023-03-26T13:14:49;22.90;53.70
21425;DHT22;10873;51.132;16.848;2023-03-26T13:17:24;22.90;53.80
21425;DHT22;10873;51.132;16.848;2023-03-26T13:19:57;23.00;53.90
21425;DHT22;10873;51.132;16.848;2023-03-26T13:22:31;23.00;53.80
21425;DHT22;10873;51.132;16.848;2023-03-26T13:25:07;23.00;53.80
21425;DHT22;10873;51.132;16.848;2023-03-26T13:27:52;23.10;53.90
21425;DHT22;10873;51.132;16.848;2023-03-26T13:30:32;23.10;54.00
21425;DHT22;10873;51.132;16.848;2023-03-26T13:33:10;23.10;54.00
21425;DHT22;10873;51.132;16.848;2023-03-26T13:35:59;23.20;54.20
21425;DHT22;10873;51.132;16.848;2023-03-26T13:38:41;23.20;54.20
21425;DHT22;10873;51.132;16.848;2023-03-26T13:41:15;23.20;54.80
21425;DHT22;10873;51.132;16.848;2023-03-26T13:43:54;23.30;54.20
21425;DHT22;10873;51.132;16.848;2023-03-26T13:46:28;23.30;54.20
21425;DHT22;10873;51.132;16.848;2023-03-26T13:48:57;23.30;54.30
21425;DHT22;10873;51.132;16.848;2023-03-26T13:51:30;23.40;54.50
21425;DHT22;10873;51.132;16.848;2023-03-26T13:54:06;23.40;54.50
21425;DHT22;10873;51.132;16.848;2023-03-26T13:56:39;23.50;54.50
21425;DHT22;10873;51.132;16.848;2023-03-26T13:59:13;23.50;54.50
21425;DHT22;10873;51.132;16.848;2023-03-26T14:01:46;23.60;54.50
21425;DHT22;10873;51.132;16.848;2023-03-26T14:04:17;23.60;54.30
21425;DHT22;10873;51.132;16.848;2023-03-26T14:06:51;23.70;54.30
21425;DHT22;10873;51.132;16.848;2023-03-26T14:09:25;23.70;54.20
21425;DHT22;10873;51.132;16.848;2023-03-26T14:12:17;23.70;54.10
21425;DHT22;10873;51.132;16.848;2023-03-26T14:15:08;23.80;54.10
21425;DHT22;10873;51.132;16.848;2023-03-26T14:17:44;23.80;54.10
21425;DHT22;10873;51.132;16.848;2023-03-26T14:21:00;23.90;54.20
21425;DHT22;10873;51.132;16.848;2023-03-26T14:23:49;23.90;54.10
21425;DHT22;10873;51.132;16.848;2023-03-26T14:26:27;23.90;54.10
21425;DHT22;10873;51.132;16.848;2023-03-26T14:29:22;23.90;54.10
21425;DHT22;10873;51.132;16.848;2023-03-26T14:32:00;24.00;54.10
21425;DHT22;10873;51.132;16.848;2023-03-26T14:34:44;24.00;54.10
21425;DHT22;10873;51.132;16.848;2023-03-26T14:37:45;24.00;54.00
21425;DHT22;10873;51.132;16.848;2023-03-26T14:40:26;24.00;54.00
21425;DHT22;10873;51.132;16.848;2023-03-26T14:45:58;24.00;54.00
21425;DHT22;10873;51.132;16.848;2023-03-26T14:48:46;24.00;54.00
21425;DHT22;10873;51.132;16.848;2023-03-26T14:51:24;24.00;54.00
21425;DHT22;10873;51.132;16.848;2023-03-26T14:53:53;24.00;54.10
21425;DHT22;10873;51.132;16.848;2023-03-26T14:56:42;24.10;54.20
21425;DHT22;10873;51.132;16.848;2023-03-26T14:59:31;24.10;55.60
21425;DHT22;10873;51.132;16.848;2023-03-26T15:05:49;24.10;56.20
21425;DHT22;10873;51.132;16.848;2023-03-26T15:08:58;24.10;56.50
21425;DHT22;10873;51.132;16.848;2023-03-26T15:11:42;24.10;56.70
21425;DHT22;10873;51.132;16.848;2023-03-26T15:14:39;24.10;56.90
21425;DHT22;10873;51.132;16.848;2023-03-26T15:20:34;24.10;57.20
21425;DHT22;10873;51.132;16.848;2023-03-26T15:23:39;24.10;57.20
21425;DHT22;10873;51.132;16.848;2023-03-26T15:32:53;24.10;57.70
21425;DHT22;10873;51.132;16.848;2023-03-26T15:35:58;24.20;57.70
21425;DHT22;10873;51.132;16.848;2023-03-26T15:41:26;24.20;57.90
21425;DHT22;10873;51.132;16.848;2023-03-26T15:44:09;24.20;57.70
21425;DHT22;10873;51.132;16.848;2023-03-26T15:46:58;24.20;57.80
21425;DHT22;10873;51.132;16.848;2023-03-26T15:49:34;24.10;57.70
21425;DHT22;10873;51.132;16.848;2023-03-26T15:52:11;24.10;57.70
21425;DHT22;10873;51.132;16.848;2023-03-26T15:54:50;24.20;57.80
21425;DHT22;10873;51.132;16.848;2023-03-26T15:57:25;24.10;58.20
21425;DHT22;10873;51.132;16.848;2023-03-26T16:00:09;24.20;58.50
21425;DHT22;10873;51.132;16.848;2023-03-26T16:02:45;24.10;58.50
21425;DHT22;10873;51.132;16.848;2023-03-26T16:05:39;24.20;58.60
21425;DHT22;10873;51.132;16.848;2023-03-26T16:08:16;24.10;58.70
21425;DHT22;10873;51.132;16.848;2023-03-26T16:10:50;24.10;58.70
21425;DHT22;10873;51.132;16.848;2023-03-26T16:13:26;24.20;58.90
21425;DHT22;10873;51.132;16.848;2023-03-26T16:15:56;24.20;58.90
21425;DHT22;10873;51.132;16.848;2023-03-26T16:18:37;24.20;58.90
21425;DHT22;10873;51.132;16.848;2023-03-26T16:21:43;24.20;59.00
21425;DHT22;10873;51.132;16.848;2023-03-26T16:24:19;24.20;59.00
21425;DHT22;10873;51.132;16.848;2023-03-26T16:26:58;24.20;58.90
21425;DHT22;10873;51.132;16.848;2023-03-26T16:29:33;24.20;58.80
21425;DHT22;10873;51.132;16.848;2023-03-26T16:32:14;24.30;58.80
21425;DHT22;10873;51.132;16.848;2023-03-26T16:34:51;24.30;58.60
21425;DHT22;10873;51.132;16.848;2023-03-26T16:37:35;24.30;58.70
21425;DHT22;10873;51.132;16.848;2023-03-26T16:43:20;24.30;58.70